sensor_id;sensor_type;location;lat;lon;timestamp;temperature;humidity
20208;DHT22;10263;48.716;8.760;2023-03-20T00:00:09;6.70;99.90
20208;DHT22;10263;48.716;8.760;2023-03-20T00:05:15;6.60;99.90
20208;DHT22;10263;48.716;8.760;2023-03-20T00:12:38;6.50;99.90
20208;DHT22;10263;48.716;8.760;2023-03-20T00:15:22;6.50;99.90
20208;DHT22;10263;48.716;8.760;2023-03-20T00:20:16;6.40;99.90
20208;DHT22;10263;48.716;8.760;2023-03-20T00:25:12;6.30;99.90
20208;DHT22;10263;48.716;8.760;2023-03-20T00:30:18;6.30;99.90
20208;DHT22;10263;48.716;8.760;2023-03-20T00:35:22;6.20;99.90
20208;DHT22;10263;48.716;8.760;2023-03-20T00:37:50;6.30;99.90
20208;DHT22;10263;48.716;8.760;2023-03-20T00:40:17;6.30;99.90
20208;DHT22;10263;48.716;8.760;2023-03-20T00:42:46;6.20;99.90
20208;DHT22;10263;48.716;8.760;2023-03-20T00:45:18;9.60;99.90
20208;DHT22;10263;48.716;8.760;2023-03-20T00:47:47;6.30;99.90
20208;DHT22;10263;48.716;8.760;2023-03-20T00:50:18;6.30;99.90
20208;DHT22;10263;48.716;8.760;2023-03-20T00:57:43;6.20;99.90
20208;DHT22;10263;48.716;8.760;2023-03-20T01:00:26;6.20;99.90
20208;DHT22;10263;48.716;8.760;2023-03-20T01:02:56;6.20;99.90
20208;DHT22;10263;48.716;8.760;2023-03-20T01:05:25;6.10;99.90
20208;DHT22;10263;48.716;8.760;2023-03-20T01:15:20;6.10;99.90
20208;DHT22;10263;48.716;8.760;2023-03-20T01:17:49;6.10;99.90
20208;DHT22;10263;48.716;8.760;2023-03-20T01:20:20;6.10;99.90
20208;DHT22;10263;48.716;8.760;2023-03-20T01:27:45;6.00;99.90
20208;DHT22;10263;48.716;8.760;2023-03-20T01:30:19;6.10;99.90
20208;DHT22;10263;48.716;8.760;2023-03-20T01:35:17;6.10;99.90
20208;DHT22;10263;48.716;8.760;2023-03-20T01:37:46;6.00;99.90
20208;DHT22;10263;48.716;8.760;2023-03-20T01:40:24;6.00;99.90
20208;DHT22;10263;48.716;8.760;2023-03-20T01:45:23;6.00;99.90
20208;DHT22;10263;48.716;8.760;2023-03-20T01:50:26;6.00;99.90
20208;DHT22;10263;48.716;8.760;2023-03-20T01:53:05;6.00;99.90
20208;DHT22;10263;48.716;8.760;2023-03-20T01:55:37;6.00;99.90
20208;DHT22;10263;48.716;8.760;2023-03-20T01:58:08;6.00;99.90
20208;DHT22;10263;48.716;8.760;2023-03-20T02:06:10;6.00;99.90
20208;DHT22;10263;48.716;8.760;2023-03-20T02:08:57;6.00;99.90
20208;DHT22;10263;48.716;8.760;2023-03-20T02:11:26;5.90;99.90
20208;DHT22;10263;48.716;8.760;2023-03-20T02:13:57;6.00;99.90
20208;DHT22;10263;48.716;8.760;2023-03-20T02:16:28;6.00;99.90
20208;DHT22;10263;48.716;8.760;2023-03-20T02:19:20;6.00;99.90
20208;DHT22;10263;48.716;8.760;2023-03-20T02:22:22;6.00;99.90
20208;DHT22;10263;48.716;8.760;2023-03-20T02:25:05;5.90;99.90
20208;DHT22;10263;48.716;8.760;2023-03-20T02:27:48;5.90;99.90
20208;DHT22;10263;48.716;8.760;2023-03-20T02:30:38;5.90;99.90
20208;DHT22;10263;48.716;8.760;2023-03-20T02:33:41;5.90;99.90
20208;DHT22;10263;48.716;8.760;2023-03-20T02:39:43;5.80;99.90
20208;DHT22;10263;48.716;8.760;2023-03-20T02:42:15;5.80;99.90
20208;DHT22;10263;48.716;8.760;2023-03-20T02:44:50;5.80;99.90
20208;DHT22;10263;48.716;8.760;2023-03-20T02:47:22;5.80;99.90
20208;DHT22;10263;48.716;8.760;2023-03-20T02:49:54;5.80;99.90
20208;DHT22;10263;48.716;8.760;2023-03-20T02:52:32;5.80;99.90
20208;DHT22;10263;48.716;8.760;2023-03-20T02:55:09;5.80;99.90
20208;DHT22;10263;48.716;8.760;2023-03-20T02:57:46;5.80;99.90
20208;DHT22;10263;48.716;8.760;2023-03-20T03:00:17;5.80;99.90
20208;DHT22;10263;48.716;8.760;2023-03-20T03:02:50;5.80;99.90
20208;DHT22;10263;48.716;8.760;2023-03-20T03:05:21;5.70;99.90
20208;DHT22;10263;48.716;8.760;2023-03-20T03:07:53;5.70;99.90
20208;DHT22;10263;48.716;8.760;2023-03-20T03:10:25;5.70;99.90
20208;DHT22;10263;48.716;8.760;2023-03-20T03:12:56;5.70;99.90
20208;DHT22;10263;48.716;8.760;2023-03-20T03:15:28;5.70;99.90
20208;DHT22;10263;48.716;8.760;2023-03-20T03:17:57;5.70;99.90
20208;DHT22;10263;48.716;8.760;2023-03-20T03:20:27;5.70;99.90
20208;DHT22;10263;48.716;8.760;2023-03-20T03:25:26;5.70;99.90
20208;DHT22;10263;48.716;8.760;2023-03-20T03:27:58;5.70;99.90
20208;DHT22;10263;48.716;8.760;2023-03-20T03:30:30;5.60;99.90
20208;DHT22;10263;48.716;8.760;2023-03-20T03:33:08;5.50;99.90
20208;DHT22;10263;48.716;8.760;2023-03-20T03:35:39;2.50;99.90
20208;DHT22;10263;48.716;8.760;2023-03-20T03:38:23;5.60;99.90
20208;DHT22;10263;48.716;8.760;2023-03-20T03:40:59;5.60;99.90
20208;DHT22;10263;48.716;8.760;2023-03-20T03:43:34;5.60;99.90
20208;DHT22;10263;48.716;8.760;2023-03-20T03:46:06;5.60;99.90
20208;DHT22;10263;48.716;8.760;2023-03-20T03:48:36;5.50;99.90
20208;DHT22;10263;48.716;8.760;2023-03-20T03:51:06;5.50;99.90
20208;DHT22;10263;48.716;8.760;2023-03-20T03:53:45;5.40;99.90
20208;DHT22;10263;48.716;8.760;2023-03-20T03:56:16;5.40;99.90
20208;DHT22;10263;48.716;8.760;2023-03-20T03:58:47;5.30;99.90
20208;DHT22;10263;48.716;8.760;2023-03-20T04:01:16;5.40;99.90
20208;DHT22;10263;48.716;8.760;2023-03-20T04:03:47;5.30;99.90
20208;DHT22;10263;48.716;8.760;2023-03-20T04:06:16;5.30;99.90
20208;DHT22;10263;48.716;8.760;2023-03-20T04:08:43;5.30;99.90
20208;DHT22;10263;48.716;8.760;2023-03-20T04:11:15;5.30;99.90
20208;DHT22;10263;48.716;8.760;2023-03-20T04:13:43;5.30;99.90
20208;DHT22;10263;48.716;8.760;2023-03-20T04:16:13;5.30;99.90
20208;DHT22;10263;48.716;8.760;2023-03-20T04:21:12;5.30;99.90
20208;DHT22;10263;48.716;8.760;2023-03-20T04:28:37;5.30;99.90
20208;DHT22;10263;48.716;8.760;2023-03-20T04:39:16;5.30;99.90
20208;DHT22;10263;48.716;8.760;2023-03-20T04:44:13;5.40;99.90
20208;DHT22;10263;48.716;8.760;2023-03-20T04:56:39;5.40;99.90
20208;DHT22;10263;48.716;8.760;2023-03-20T05:01:40;5.50;99.90
20208;DHT22;10263;48.716;8.760;2023-03-20T05:04:07;5.50;99.90
20208;DHT22;10263;48.716;8.760;2023-03-20T05:06:35;5.50;99.90
20208;DHT22;10263;48.716;8.760;2023-03-20T05:09:03;5.40;99.90
20208;DHT22;10263;48.716;8.760;2023-03-20T05:14:15;5.40;99.90
20208;DHT22;10263;48.716;8.760;2023-03-20T05:17:04;5.50;99.90
20208;DHT22;10263;48.716;8.760;2023-03-20T05:33:54;5.60;99.90
20208;DHT22;10263;48.716;8.760;2023-03-20T05:47:41;5.70;99.90
20208;DHT22;10263;48.716;8.760;2023-03-20T05:50:23;5.70;99.90
20208;DHT22;10263;48.716;8.760;2023-03-20T06:06:52;5.80;99.90
20208;DHT22;10263;48.716;8.760;2023-03-20T06:09:19;5.80;99.90
20208;DHT22;10263;48.716;8.760;2023-03-20T06:24:19;6.00;99.90
20208;DHT22;10263;48.716;8.760;2023-03-20T06:26:46;6.00;99.90
20208;DHT22;10263;48.716;8.760;2023-03-20T06:39:19;6.30;99.90
20208;DHT22;10263;48.716;8.760;2023-03-20T06:44:14;6.50;99.90
20208;DHT22;10263;48.716;8.760;2023-03-20T06:54:25;7.00;99.90
20208;DHT22;10263;48.716;8.760;2023-03-20T07:01:49;7.20;99.90
20208;DHT22;10263;48.716;8.760;2023-03-20T07:11:44;7.30;99.90
20208;DHT22;10263;48.716;8.760;2023-03-20T07:19:15;7.30;99.90
20208;DHT22;10263;48.716;8.760;2023-03-20T07:21:45;7.30;99.90
20208;DHT22;10263;48.716;8.760;2023-03-20T07:29:10;7.50;99.90
20208;DHT22;10263;48.716;8.760;2023-03-20T07:34:21;7.60;99.90
20208;DHT22;10263;48.716;8.760;2023-03-20T07:39:20;7.70;99.90
20208;DHT22;10263;48.716;8.760;2023-03-20T07:42:05;7.80;99.90
20208;DHT22;10263;48.716;8.760;2023-03-20T07:44:45;7.90;99.90
20208;DHT22;10263;48.716;8.760;2023-03-20T08:01:58;8.80;99.90
20208;DHT22;10263;48.716;8.760;2023-03-20T08:16:41;9.00;99.90
20208;DHT22;10263;48.716;8.760;2023-03-20T08:19:09;9.00;99.90
20208;DHT22;10263;48.716;8.760;2023-03-20T08:24:03;9.20;99.90
20208;DHT22;10263;48.716;8.760;2023-03-20T08:28:57;9.40;99.90
20208;DHT22;10263;48.716;8.760;2023-03-20T08:31:24;9.70;99.90
20208;DHT22;10263;48.716;8.760;2023-03-20T08:36:20;10.00;99.90
20208;DHT22;10263;48.716;8.760;2023-03-20T08:38:47;10.20;99.90
20208;DHT22;10263;48.716;8.760;2023-03-20T08:41:15;10.40;99.90
20208;DHT22;10263;48.716;8.760;2023-03-20T08:43:42;10.60;99.90
20208;DHT22;10263;48.716;8.760;2023-03-20T08:48:36;10.40;99.90
20208;DHT22;10263;48.716;8.760;2023-03-20T08:51:03;10.50;99.90
20208;DHT22;10263;48.716;8.760;2023-03-20T08:53:31;10.60;99.90
20208;DHT22;10263;48.716;8.760;2023-03-20T08:58:26;10.80;99.90
20208;DHT22;10263;48.716;8.760;2023-03-20T09:00:53;11.10;99.90
20208;DHT22;10263;48.716;8.760;2023-03-20T09:05:49;11.40;99.90
20208;DHT22;10263;48.716;8.760;2023-03-20T09:10:46;11.80;99.90
20208;DHT22;10263;48.716;8.760;2023-03-20T09:13:13;12.00;99.90
20208;DHT22;10263;48.716;8.760;2023-03-20T09:23:01;12.70;99.90
20208;DHT22;10263;48.716;8.760;2023-03-20T09:25:28;13.00;99.90
20208;DHT22;10263;48.716;8.760;2023-03-20T09:27:56;13.40;99.90
20208;DHT22;10263;48.716;8.760;2023-03-20T09:30:23;13.60;99.90
20208;DHT22;10263;48.716;8.760;2023-03-20T09:37:45;13.70;99.90
20208;DHT22;10263;48.716;8.760;2023-03-20T09:40:21;14.00;99.90
20208;DHT22;10263;48.716;8.760;2023-03-20T09:42:56;14.00;99.90
20208;DHT22;10263;48.716;8.760;2023-03-20T09:45:36;13.90;99.90
20208;DHT22;10263;48.716;8.760;2023-03-20T09:48:11;13.30;99.90
20208;DHT22;10263;48.716;8.760;2023-03-20T09:50:44;13.20;99.90
20208;DHT22;10263;48.716;8.760;2023-03-20T09:53:17;13.00;99.90
20208;DHT22;10263;48.716;8.760;2023-03-20T09:55:47;13.10;99.90
20208;DHT22;10263;48.716;8.760;2023-03-20T09:58:20;13.10;99.90
20208;DHT22;10263;48.716;8.760;2023-03-20T10:03:18;13.20;99.90
20208;DHT22;10263;48.716;8.760;2023-03-20T10:05:50;13.30;99.90
20208;DHT22;10263;48.716;8.760;2023-03-20T10:08:22;13.20;99.90
20208;DHT22;10263;48.716;8.760;2023-03-20T10:10:56;13.30;99.90
20208;DHT22;10263;48.716;8.760;2023-03-20T10:13:58;13.30;99.90
20208;DHT22;10263;48.716;8.760;2023-03-20T10:16:39;13.00;99.90
20208;DHT22;10263;48.716;8.760;2023-03-20T10:19:17;12.90;99.90
20208;DHT22;10263;48.716;8.760;2023-03-20T10:21:48;12.80;99.90
20208;DHT22;10263;48.716;8.760;2023-03-20T10:24:21;12.70;99.90
20208;DHT22;10263;48.716;8.760;2023-03-20T10:26:51;13.00;99.90
20208;DHT22;10263;48.716;8.760;2023-03-20T10:29:27;13.40;99.90
20208;DHT22;10263;48.716;8.760;2023-03-20T10:32:02;14.00;99.90
20208;DHT22;10263;48.716;8.760;2023-03-20T10:34:47;14.20;99.90
20208;DHT22;10263;48.716;8.760;2023-03-20T10:37:26;14.30;99.90
20208;DHT22;10263;48.716;8.760;2023-03-20T10:40:02;14.20;99.90
20208;DHT22;10263;48.716;8.760;2023-03-20T10:42:40;14.20;99.90
20208;DHT22;10263;48.716;8.760;2023-03-20T10:45:20;14.00;99.90
20208;DHT22;10263;48.716;8.760;2023-03-20T10:47:52;13.90;99.90
20208;DHT22;10263;48.716;8.760;2023-03-20T10:50:22;13.80;99.90
20208;DHT22;10263;48.716;8.760;2023-03-20T10:52:53;13.70;99.90
20208;DHT22;10263;48.716;8.760;2023-03-20T10:55:24;13.50;99.90
20208;DHT22;10263;48.716;8.760;2023-03-20T10:57:56;13.50;99.90
20208;DHT22;10263;48.716;8.760;2023-03-20T11:00:26;13.50;99.90
20208;DHT22;10263;48.716;8.760;2023-03-20T11:05:22;13.30;99.90
20208;DHT22;10263;48.716;8.760;2023-03-20T11:08:00;13.10;99.90
20208;DHT22;10263;48.716;8.760;2023-03-20T11:10:28;13.20;99.90
20208;DHT22;10263;48.716;8.760;2023-03-20T11:12:57;13.40;99.90
20208;DHT22;10263;48.716;8.760;2023-03-20T11:15:27;13.60;99.90
20208;DHT22;10263;48.716;8.760;2023-03-20T11:17:57;13.60;99.90
20208;DHT22;10263;48.716;8.760;2023-03-20T11:20:26;13.60;99.90
20208;DHT22;10263;48.716;8.760;2023-03-20T11:22:58;13.80;99.90
20208;DHT22;10263;48.716;8.760;2023-03-20T11:25:29;13.80;99.90
20208;DHT22;10263;48.716;8.760;2023-03-20T11:27:57;13.90;99.90
20208;DHT22;10263;48.716;8.760;2023-03-20T11:30:44;13.70;99.90
20208;DHT22;10263;48.716;8.760;2023-03-20T11:35:44;13.20;99.90
20208;DHT22;10263;48.716;8.760;2023-03-20T11:38:14;13.10;99.90
20208;DHT22;10263;48.716;8.760;2023-03-20T11:40:41;13.10;99.90
20208;DHT22;10263;48.716;8.760;2023-03-20T11:43:11;13.10;99.90
20208;DHT22;10263;48.716;8.760;2023-03-20T11:45:39;13.10;99.90
20208;DHT22;10263;48.716;8.760;2023-03-20T11:48:15;13.30;99.90
20208;DHT22;10263;48.716;8.760;2023-03-20T11:50:44;13.40;99.90
20208;DHT22;10263;48.716;8.760;2023-03-20T11:53:24;13.50;99.90
20208;DHT22;10263;48.716;8.760;2023-03-20T11:56:09;13.60;99.90
20208;DHT22;10263;48.716;8.760;2023-03-20T11:58:45;13.80;99.90
20208;DHT22;10263;48.716;8.760;2023-03-20T12:01:14;13.90;99.90
20208;DHT22;10263;48.716;8.760;2023-03-20T12:03:44;14.00;99.90
20208;DHT22;10263;48.716;8.760;2023-03-20T12:06:18;14.10;99.90
20208;DHT22;10263;48.716;8.760;2023-03-20T12:08:50;14.10;99.90
20208;DHT22;10263;48.716;8.760;2023-03-20T12:11:35;13.90;99.90
20208;DHT22;10263;48.716;8.760;2023-03-20T12:14:04;13.90;99.90
20208;DHT22;10263;48.716;8.760;2023-03-20T12:16:33;14.00;99.90
20208;DHT22;10263;48.716;8.760;2023-03-20T12:19:05;14.10;99.90
20208;DHT22;10263;48.716;8.760;2023-03-20T12:21:41;14.10;99.90
20208;DHT22;10263;48.716;8.760;2023-03-20T12:24:12;14.10;99.90
20208;DHT22;10263;48.716;8.760;2023-03-20T12:26:47;13.90;99.90
20208;DHT22;10263;48.716;8.760;2023-03-20T12:29:22;13.80;99.90
20208;DHT22;10263;48.716;8.760;2023-03-20T12:31:55;13.90;99.90
20208;DHT22;10263;48.716;8.760;2023-03-20T12:34:28;13.90;99.90
20208;DHT22;10263;48.716;8.760;2023-03-20T12:39:27;14.00;99.90
20208;DHT22;10263;48.716;8.760;2023-03-20T12:42:07;14.00;99.90
20208;DHT22;10263;48.716;8.760;2023-03-20T12:44:42;14.10;99.90
20208;DHT22;10263;48.716;8.760;2023-03-20T12:47:50;14.10;99.90
20208;DHT22;10263;48.716;8.760;2023-03-20T12:50:25;14.10;99.90
20208;DHT22;10263;48.716;8.760;2023-03-20T12:53:02;14.10;99.90
20208;DHT22;10263;48.716;8.760;2023-03-20T12:55:44;14.30;99.90
20208;DHT22;10263;48.716;8.760;2023-03-20T12:58:22;14.20;99.90
20208;DHT22;10263;48.716;8.760;2023-03-20T13:00:59;14.50;99.90
20208;DHT22;10263;48.716;8.760;2023-03-20T13:03:38;14.70;99.90
20208;DHT22;10263;48.716;8.760;2023-03-20T13:06:13;14.80;99.90
20208;DHT22;10263;48.716;8.760;2023-03-20T13:09:00;14.90;99.90
20208;DHT22;10263;48.716;8.760;2023-03-20T13:11:36;15.40;99.90
20208;DHT22;10263;48.716;8.760;2023-03-20T13:14:09;15.90;99.70
20208;DHT22;10263;48.716;8.760;2023-03-20T13:16:46;16.40;98.10
20208;DHT22;10263;48.716;8.760;2023-03-20T13:19:23;16.40;97.10
20208;DHT22;10263;48.716;8.760;2023-03-20T13:21:57;17.00;96.30
20208;DHT22;10263;48.716;8.760;2023-03-20T13:24:39;17.50;95.10
20208;DHT22;10263;48.716;8.760;2023-03-20T13:27:18;17.60;94.00
20208;DHT22;10263;48.716;8.760;2023-03-20T13:29:51;16.90;93.30
20208;DHT22;10263;48.716;8.760;2023-03-20T13:32:26;17.50;93.90
20208;DHT22;10263;48.716;8.760;2023-03-20T13:38:07;18.30;90.80
20208;DHT22;10263;48.716;8.760;2023-03-20T13:40:38;17.50;90.60
20208;DHT22;10263;48.716;8.760;2023-03-20T13:43:17;18.20;90.80
20208;DHT22;10263;48.716;8.760;2023-03-20T13:45:46;18.20;91.00
20208;DHT22;10263;48.716;8.760;2023-03-20T13:48:23;18.30;90.80
20208;DHT22;10263;48.716;8.760;2023-03-20T13:50:58;18.50;88.50
20208;DHT22;10263;48.716;8.760;2023-03-20T13:53:34;18.20;88.50
20208;DHT22;10263;48.716;8.760;2023-03-20T13:56:09;17.40;89.90
20208;DHT22;10263;48.716;8.760;2023-03-20T13:58:55;16.90;91.10
20208;DHT22;10263;48.716;8.760;2023-03-20T14:01:34;16.90;91.70
20208;DHT22;10263;48.716;8.760;2023-03-20T14:04:06;16.80;92.20
20208;DHT22;10263;48.716;8.760;2023-03-20T14:06:44;16.70;92.50
20208;DHT22;10263;48.716;8.760;2023-03-20T14:09:29;16.50;92.80
20208;DHT22;10263;48.716;8.760;2023-03-20T14:12:00;16.40;93.20
20208;DHT22;10263;48.716;8.760;2023-03-20T14:14:29;15.90;92.70
20208;DHT22;10263;48.716;8.760;2023-03-20T14:17:01;15.80;92.80
20208;DHT22;10263;48.716;8.760;2023-03-20T14:19:29;15.70;93.10
20208;DHT22;10263;48.716;8.760;2023-03-20T14:21:56;15.60;93.30
20208;DHT22;10263;48.716;8.760;2023-03-20T14:24:27;15.20;93.60
20208;DHT22;10263;48.716;8.760;2023-03-20T14:26:56;14.90;93.60
20208;DHT22;10263;48.716;8.760;2023-03-20T14:29:35;15.10;94.10
20208;DHT22;10263;48.716;8.760;2023-03-20T14:32:05;15.30;93.40
20208;DHT22;10263;48.716;8.760;2023-03-20T14:34:48;15.50;94.00
20208;DHT22;10263;48.716;8.760;2023-03-20T14:37:28;15.10;93.80
20208;DHT22;10263;48.716;8.760;2023-03-20T14:40:03;15.00;94.00
20208;DHT22;10263;48.716;8.760;2023-03-20T14:42:39;14.80;94.90
20208;DHT22;10263;48.716;8.760;2023-03-20T14:45:34;14.80;95.50
20208;DHT22;10263;48.716;8.760;2023-03-20T14:48:11;14.40;95.40
20208;DHT22;10263;48.716;8.760;2023-03-20T14:50:50;14.20;96.50
20208;DHT22;10263;48.716;8.760;2023-03-20T14:53:20;14.50;95.60
20208;DHT22;10263;48.716;8.760;2023-03-20T14:56:05;14.50;95.30
20208;DHT22;10263;48.716;8.760;2023-03-20T15:01:43;14.60;96.00
20208;DHT22;10263;48.716;8.760;2023-03-20T15:04:19;14.30;94.80
20208;DHT22;10263;48.716;8.760;2023-03-20T15:06:50;14.20;95.80
20208;DHT22;10263;48.716;8.760;2023-03-20T15:09:20;14.10;95.30
20208;DHT22;10263;48.716;8.760;2023-03-20T15:11:50;13.90;95.50
20208;DHT22;10263;48.716;8.760;2023-03-20T15:14:20;13.90;95.60
20208;DHT22;10263;48.716;8.760;2023-03-20T15:16:56;13.80;96.30
20208;DHT22;10263;48.716;8.760;2023-03-20T15:24:20;14.30;95.20
20208;DHT22;10263;48.716;8.760;2023-03-20T15:26:52;14.20;94.70
20208;DHT22;10263;48.716;8.760;2023-03-20T15:29:21;13.70;95.30
20208;DHT22;10263;48.716;8.760;2023-03-20T15:31:52;13.70;95.30
20208;DHT22;10263;48.716;8.760;2023-03-20T15:34:22;13.40;95.60
20208;DHT22;10263;48.716;8.760;2023-03-20T15:36:49;13.50;96.10
20208;DHT22;10263;48.716;8.760;2023-03-20T15:39:19;13.50;97.00
20208;DHT22;10263;48.716;8.760;2023-03-20T15:41:52;13.40;96.80
20208;DHT22;10263;48.716;8.760;2023-03-20T15:44:22;13.10;96.60
20208;DHT22;10263;48.716;8.760;2023-03-20T15:46:54;13.10;97.90
20208;DHT22;10263;48.716;8.760;2023-03-20T15:49:22;13.20;98.60
20208;DHT22;10263;48.716;8.760;2023-03-20T15:51:51;13.20;97.90
20208;DHT22;10263;48.716;8.760;2023-03-20T15:54:18;13.30;98.10
20208;DHT22;10263;48.716;8.760;2023-03-20T15:56:48;13.00;97.50
20208;DHT22;10263;48.716;8.760;2023-03-20T15:59:18;13.00;97.60
20208;DHT22;10263;48.716;8.760;2023-03-20T16:01:48;13.00;98.60
20208;DHT22;10263;48.716;8.760;2023-03-20T16:04:16;12.90;98.20
20208;DHT22;10263;48.716;8.760;2023-03-20T16:06:45;12.90;98.20
20208;DHT22;10263;48.716;8.760;2023-03-20T16:09:14;12.90;98.90
20208;DHT22;10263;48.716;8.760;2023-03-20T16:11:43;12.60;98.30
20208;DHT22;10263;48.716;8.760;2023-03-20T16:14:14;12.30;98.70
20208;DHT22;10263;48.716;8.760;2023-03-20T16:16:43;12.30;98.80
20208;DHT22;10263;48.716;8.760;2023-03-20T16:21:43;12.30;99.90
20208;DHT22;10263;48.716;8.760;2023-03-20T16:24:17;12.10;99.70
20208;DHT22;10263;48.716;8.760;2023-03-20T16:26:48;11.80;99.90
20208;DHT22;10263;48.716;8.760;2023-03-20T16:29:16;11.80;99.90
20208;DHT22;10263;48.716;8.760;2023-03-20T16:31:48;11.70;99.90
20208;DHT22;10263;48.716;8.760;2023-03-20T16:34:20;11.60;99.90
20208;DHT22;10263;48.716;8.760;2023-03-20T16:36:51;11.60;99.90
20208;DHT22;10263;48.716;8.760;2023-03-20T16:39:19;11.70;99.90
20208;DHT22;10263;48.716;8.760;2023-03-20T16:41:55;11.60;99.90
20208;DHT22;10263;48.716;8.760;2023-03-20T16:44:28;11.40;99.90
20208;DHT22;10263;48.716;8.760;2023-03-20T16:46:59;11.40;99.90
20208;DHT22;10263;48.716;8.760;2023-03-20T16:52:34;11.50;99.90
20208;DHT22;10263;48.716;8.760;2023-03-20T16:57:34;11.30;99.90
20208;DHT22;10263;48.716;8.760;2023-03-20T17:00:06;11.40;99.90
20208;DHT22;10263;48.716;8.760;2023-03-20T17:02:38;11.20;99.90
20208;DHT22;10263;48.716;8.760;2023-03-20T17:05:11;11.10;99.90
20208;DHT22;10263;48.716;8.760;2023-03-20T17:07:38;11.00;99.90
20208;DHT22;10263;48.716;8.760;2023-03-20T17:10:17;11.00;99.90
20208;DHT22;10263;48.716;8.760;2023-03-20T17:12:47;11.00;99.90
20208;DHT22;10263;48.716;8.760;2023-03-20T17:15:16;10.90;99.90
20208;DHT22;10263;48.716;8.760;2023-03-20T17:17:44;10.90;99.90
20208;DHT22;10263;48.716;8.760;2023-03-20T17:20:18;10.90;99.90
20208;DHT22;10263;48.716;8.760;2023-03-20T17:22:46;10.90;99.90
20208;DHT22;10263;48.716;8.760;2023-03-20T17:30:14;10.80;99.90
20208;DHT22;10263;48.716;8.760;2023-03-20T17:35:10;10.80;99.90
20208;DHT22;10263;48.716;8.760;2023-03-20T17:37:38;10.80;99.90
20208;DHT22;10263;48.716;8.760;2023-03-20T17:40:09;10.80;99.90
20208;DHT22;10263;48.716;8.760;2023-03-20T17:45:11;10.80;99.90
20208;DHT22;10263;48.716;8.760;2023-03-20T17:47:39;10.60;99.90
20208;DHT22;10263;48.716;8.760;2023-03-20T17:50:16;10.70;99.90
20208;DHT22;10263;48.716;8.760;2023-03-20T17:57:38;10.60;99.90
20208;DHT22;10263;48.716;8.760;2023-03-20T18:00:08;10.60;99.90
20208;DHT22;10263;48.716;8.760;2023-03-20T18:07:34;10.40;99.90
20208;DHT22;10263;48.716;8.760;2023-03-20T18:24:48;10.30;99.90
20208;DHT22;10263;48.716;8.760;2023-03-20T18:32:09;10.20;99.90
20208;DHT22;10263;48.716;8.760;2023-03-20T18:42:02;10.20;99.90
20208;DHT22;10263;48.716;8.760;2023-03-20T18:59:15;10.10;99.90
20208;DHT22;10263;48.716;8.760;2023-03-20T19:01:43;10.10;99.90
20208;DHT22;10263;48.716;8.760;2023-03-20T19:16:29;9.90;99.90
20208;DHT22;10263;48.716;8.760;2023-03-20T19:18:57;9.80;99.90
20208;DHT22;10263;48.716;8.760;2023-03-20T19:21:25;9.80;99.90
20208;DHT22;10263;48.716;8.760;2023-03-20T19:23:53;9.80;99.90
20208;DHT22;10263;48.716;8.760;2023-03-20T19:26:22;9.80;99.90
20208;DHT22;10263;48.716;8.760;2023-03-20T19:28:50;9.70;99.90
20208;DHT22;10263;48.716;8.760;2023-03-20T19:33:46;9.70;99.90
20208;DHT22;10263;48.716;8.760;2023-03-20T19:36:22;9.70;99.90
20208;DHT22;10263;48.716;8.760;2023-03-20T19:38:50;9.70;99.90
20208;DHT22;10263;48.716;8.760;2023-03-20T19:43:44;9.70;99.90
20208;DHT22;10263;48.716;8.760;2023-03-20T19:46:12;9.70;99.90
20208;DHT22;10263;48.716;8.760;2023-03-20T19:48:41;9.70;99.90
20208;DHT22;10263;48.716;8.760;2023-03-20T19:51:13;9.70;99.90
20208;DHT22;10263;48.716;8.760;2023-03-20T19:56:09;9.70;99.90
20208;DHT22;10263;48.716;8.760;2023-03-20T20:01:04;9.70;99.90
20208;DHT22;10263;48.716;8.760;2023-03-20T20:03:32;9.80;99.90
20208;DHT22;10263;48.716;8.760;2023-03-20T20:05:59;9.70;99.90
20208;DHT22;10263;48.716;8.760;2023-03-20T20:08:29;9.70;99.90
20208;DHT22;10263;48.716;8.760;2023-03-20T20:10:56;9.70;99.90
20208;DHT22;10263;48.716;8.760;2023-03-20T20:13:25;9.70;99.90
20208;DHT22;10263;48.716;8.760;2023-03-20T20:18:23;9.70;99.90
20208;DHT22;10263;48.716;8.760;2023-03-20T20:20:51;9.70;99.90
20208;DHT22;10263;48.716;8.760;2023-03-20T20:23:19;9.60;99.90
20208;DHT22;10263;48.716;8.760;2023-03-20T20:25:48;9.60;99.90
20208;DHT22;10263;48.716;8.760;2023-03-20T20:28:17;9.60;99.90
20208;DHT22;10263;48.716;8.760;2023-03-20T20:30:47;9.50;99.90
20208;DHT22;10263;48.716;8.760;2023-03-20T20:33:15;9.60;99.90
20208;DHT22;10263;48.716;8.760;2023-03-20T20:43:06;9.60;99.90
20208;DHT22;10263;48.716;8.760;2023-03-20T20:48:02;9.60;99.90
20208;DHT22;10263;48.716;8.760;2023-03-20T20:50:31;9.50;99.90
20208;DHT22;10263;48.716;8.760;2023-03-20T20:53:00;9.50;99.90
20208;DHT22;10263;48.716;8.760;2023-03-20T21:00:24;9.30;99.90
20208;DHT22;10263;48.716;8.760;2023-03-20T21:02:51;9.40;99.90
20208;DHT22;10263;48.716;8.760;2023-03-20T21:07:47;9.30;99.90
20208;DHT22;10263;48.716;8.760;2023-03-20T21:10:16;9.30;99.90
20208;DHT22;10263;48.716;8.760;2023-03-20T21:17:39;9.10;99.90
20208;DHT22;10263;48.716;8.760;2023-03-20T21:20:07;9.20;99.90
20208;DHT22;10263;48.716;8.760;2023-03-20T21:25:03;9.10;99.90
20208;DHT22;10263;48.716;8.760;2023-03-20T21:34:57;9.20;99.90
20208;DHT22;10263;48.716;8.760;2023-03-20T21:42:21;10.80;99.90
20208;DHT22;10263;48.716;8.760;2023-03-20T21:44:48;9.10;99.90
20208;DHT22;10263;48.716;8.760;2023-03-20T21:49:42;9.20;99.90
20208;DHT22;10263;48.716;8.760;2023-03-20T21:52:12;9.20;99.90
20208;DHT22;10263;48.716;8.760;2023-03-20T22:09:25;9.10;99.90
20208;DHT22;10263;48.716;8.760;2023-03-20T22:11:52;9.20;99.90
20208;DHT22;10263;48.716;8.760;2023-03-20T22:21:42;9.10;99.90
20208;DHT22;10263;48.716;8.760;2023-03-20T22:26:38;9.00;99.90
20208;DHT22;10263;48.716;8.760;2023-03-20T22:31:32;8.90;99.90
20208;DHT22;10263;48.716;8.760;2023-03-20T22:33:59;8.90;99.90
20208;DHT22;10263;48.716;8.760;2023-03-20T22:41:20;8.80;99.90
20208;DHT22;10263;48.716;8.760;2023-03-20T22:43:48;8.80;99.90
20208;DHT22;10263;48.716;8.760;2023-03-20T22:46:15;8.70;99.90
20208;DHT22;10263;48.716;8.760;2023-03-20T22:48:43;8.70;99.90
20208;DHT22;10263;48.716;8.760;2023-03-20T22:51:09;8.70;99.90
20208;DHT22;10263;48.716;8.760;2023-03-20T22:56:05;8.70;99.90
20208;DHT22;10263;48.716;8.760;2023-03-20T23:01:00;8.60;99.90
20208;DHT22;10263;48.716;8.760;2023-03-20T23:10:50;8.60;99.90
20208;DHT22;10263;48.716;8.760;2023-03-20T23:13:18;8.60;99.90
20208;DHT22;10263;48.716;8.760;2023-03-20T23:15:47;9.40;99.90
20208;DHT22;10263;48.716;8.760;2023-03-20T23:18:16;8.50;99.90
20208;DHT22;10263;48.716;8.760;2023-03-20T23:20:43;8.60;99.90
20208;DHT22;10263;48.716;8.760;2023-03-20T23:28:04;8.50;99.90
20208;DHT22;10263;48.716;8.760;2023-03-20T23:32:58;8.50;99.90
20208;DHT22;10263;48.716;8.760;2023-03-20T23:35:26;8.40;99.90